Chicago, Illinois
Traffic Map
Current Weather Conditions
Chicago, Illinois
Few Clouds
Few Clouds
12°
Feels Like: 12°
Wind Chill: 12° Ceiling: Unl
Heat Index: 12° Visibility: 10mi
Dew Point: Wind: 7mph
Humidity: 80% Direction: 120° (ESE)
Pressure: 30.01in Gusts: 0mph
Raw Report DataKMDW 011153Z 12006KT 10SM FEW022 12/08 A3001 RMK SLP163 T01170083 10139 20111 53003
Traffic Incident Summary
Active as of:
Severity:
Category:
InformationThere was an issue retrieving the traffic information for this location. Please try a different location or try again shortly.
Advertisements
Track Severe Weather on mobile